Time;durP1;ratioP1;P1;durP2;ratioP2;P2;SDS_P1;SDS_P2;PMS_P1;PMS_P2;Temp;Humidity;BMP_temperature;BMP_pressure;BME280_temperature;BME280_humidity;BME280_pressure;Samples;Min_cycle;Max_cycle;Signal;HPM_P1;HPM_P2
2022/11/10 00:01:10;;;;;;;8.80;1.85;;;10.80;99.90;;;-144.05;71.65;125687.94;5052838;28;20032;-78
2022/11/10 00:03:39;;;;;;;16.25;2.45;;;10.80;99.90;;;-144.05;71.36;125687.94;5035885;28;20064;-78
2022/11/10 00:06:08;;;;;;;9.20;2.55;;;10.80;99.90;;;-144.05;71.82;125687.94;5035544;28;20389;-78
2022/11/10 00:08:35;;;;;;;10.18;2.05;;;10.80;99.90;;;-144.05;71.94;125687.94;5035608;28;20032;-78
2022/11/10 00:11:07;;;;;;;11.85;2.35;;;10.80;99.90;;;-144.05;71.38;125687.94;5049923;28;20034;-78
2022/11/10 00:19:05;;;;;;;8.35;1.77;;;10.60;99.90;;;-144.05;72.24;125687.94;5035009;28;20045;-78
2022/11/10 00:21:31;;;;;;;11.35;2.60;;;10.60;99.90;;;-144.05;72.24;125687.94;5034578;28;20658;-78
2022/11/10 00:23:57;;;;;;;7.68;2.22;;;10.60;99.90;;;-144.05;72.44;125687.94;5034837;28;20040;-78
2022/11/10 00:26:23;;;;;;;9.88;2.10;;;10.50;99.90;;;-144.05;72.35;125687.94;5035123;28;20068;-78
2022/11/10 00:28:49;;;;;;;15.65;3.03;;;10.60;99.90;;;-144.05;72.64;125687.94;5050036;28;20088;-78
2022/11/10 00:31:14;;;;;;;9.43;2.53;;;10.50;99.90;;;-144.05;72.87;125687.94;5049998;28;20029;-78
2022/11/10 00:33:43;;;;;;;10.82;2.47;;;10.50;99.90;;;-144.05;72.33;125687.94;5035051;28;20561;-78
2022/11/10 00:36:10;;;;;;;15.13;2.00;;;10.50;99.90;;;-144.05;72.48;125687.94;5033507;28;20065;-78
2022/11/10 00:38:35;;;;;;;9.32;2.20;;;10.50;99.90;;;-144.05;72.43;125687.94;5032979;28;20416;-78
2022/11/10 00:41:02;;;;;;;11.13;2.38;;;10.50;99.90;;;-144.05;71.97;125687.94;5035282;28;20022;-77
2022/11/10 00:43:29;;;;;;;10.02;1.98;;;10.50;99.90;;;-144.05;73.05;125687.94;5036926;28;20037;-78
2022/11/10 00:45:56;;;;;;;13.43;2.38;;;10.40;99.90;;;-144.05;73.42;125687.94;5034704;28;20389;-78
2022/11/10 00:48:22;;;;;;;13.30;2.30;;;10.40;99.90;;;-144.05;72.81;125687.94;5050884;28;20026;-78
2022/11/10 00:50:48;;;;;;;17.10;2.78;;;10.30;99.90;;;-144.05;73.46;125687.94;5036393;28;20096;-78
2022/11/10 00:53:14;;;;;;;9.27;2.70;;;10.30;99.90;;;-144.05;73.82;125687.94;5036550;28;20503;-78
2022/11/10 00:55:40;;;;;;;9.75;2.20;;;10.30;99.90;;;-144.05;73.53;125687.94;5036269;28;20029;-78
2022/11/10 00:58:06;;;;;;;10.20;2.28;;;10.40;99.90;;;-144.05;73.80;125687.94;5035296;28;20029;-78
2022/11/10 01:00:33;;;;;;;9.98;3.10;;;10.40;99.90;;;-144.05;73.45;125687.94;5036397;28;20021;-77
2022/11/10 01:03:01;;;;;;;16.13;2.75;;;10.40;99.90;;;-144.05;73.72;125687.94;5036336;28;20029;-78
2022/11/10 01:05:29;;;;;;;10.93;2.92;;;10.40;99.90;;;-144.05;73.78;125687.94;5036083;28;20037;-77
2022/11/10 01:07:58;;;;;;;16.38;2.92;;;10.40;99.90;;;-144.05;74.33;125687.94;5036478;28;20148;-77
2022/11/10 01:10:25;;;;;;;14.02;2.30;;;10.40;99.90;;;-144.05;73.94;125687.94;5036073;28;20021;-78
2022/11/10 01:12:52;;;;;;;16.20;2.83;;;10.50;99.90;;;-144.05;73.49;125687.94;5036872;28;20033;-78
2022/11/10 01:15:19;;;;;;;15.95;2.60;;;10.50;99.90;;;-144.05;73.64;125687.94;5036920;28;20555;-79
2022/11/10 01:17:45;;;;;;;7.65;2.08;;;10.50;99.90;;;-144.05;73.54;125687.94;5033368;28;20053;-78
2022/11/10 01:20:11;;;;;;;12.48;2.10;;;10.50;99.90;;;-144.05;73.15;125687.94;5036239;28;20108;-77
2022/11/10 01:22:37;;;;;;;8.05;2.15;;;10.40;99.90;;;-144.05;73.67;125687.94;5036414;28;20033;-78
2022/11/10 01:25:04;;;;;;;19.10;2.92;;;10.40;99.90;;;-144.05;73.62;125687.94;5035508;28;20079;-78
2022/11/10 01:27:29;;;;;;;14.57;2.80;;;10.50;99.90;;;-144.05;74.14;125687.94;5034865;28;20075;-78
2022/11/10 01:29:55;;;;;;;11.02;2.08;;;10.40;99.90;;;-144.05;73.54;125687.94;5035245;28;20033;-78
2022/11/10 01:32:21;;;;;;;20.92;3.35;;;10.40;99.90;;;-144.05;74.08;125687.94;5034379;28;20044;-78
2022/11/10 01:34:47;;;;;;;13.90;2.50;;;10.40;99.90;;;-144.05;73.96;125687.94;5034258;28;20041;-78
2022/11/10 01:37:13;;;;;;;12.65;1.88;;;10.40;99.90;;;-144.05;73.76;125687.94;5032768;28;20025;-78
2022/11/10 01:39:39;;;;;;;8.00;2.20;;;10.40;99.90;;;-144.05;73.84;125687.94;5035705;28;20033;-78
2022/11/10 01:42:06;;;;;;;11.80;2.63;;;10.40;99.90;;;-144.05;73.55;125687.94;5035992;28;20037;-78
2022/11/10 01:44:34;;;;;;;14.45;2.35;;;10.40;99.90;;;-144.05;74.00;125687.94;5037114;28;20030;-79
2022/11/10 01:47:01;;;;;;;13.93;2.35;;;10.40;99.90;;;-144.05;73.94;125687.94;5037828;28;20018;-79
2022/11/10 01:49:31;;;;;;;16.83;3.33;;;10.40;99.90;;;-144.05;74.00;125687.94;5036725;28;20424;-78
2022/11/10 01:52:10;;;;;;;13.73;2.35;;;10.40;99.90;;;-144.05;74.15;125687.94;5035794;28;20033;-78
2022/11/10 01:54:48;;;;;;;8.65;2.10;;;10.30;99.90;;;-144.05;74.26;125687.94;5035029;28;20033;-79
2022/11/10 01:57:16;;;;;;;12.18;2.20;;;10.30;99.90;;;-144.05;74.60;125687.94;5036609;28;20057;-78
2022/11/10 01:59:48;;;;;;;10.75;2.40;;;10.30;99.90;;;-144.05;74.16;125687.94;5042929;28;20033;-78
2022/11/10 02:02:31;;;;;;;12.82;2.08;;;10.30;99.90;;;-144.05;74.76;125687.94;5035582;28;20060;-78
2022/11/10 02:05:02;;;;;;;17.35;2.85;;;10.30;99.90;;;-144.05;73.85;125687.94;5035025;28;20047;-78
2022/11/10 02:07:31;;;;;;;15.52;2.92;;;10.30;99.90;;;-144.05;74.27;125687.94;5036235;28;20102;-79
2022/11/10 02:09:57;;;;;;;10.00;2.30;;;10.20;99.90;;;-144.05;74.47;125687.94;5036723;28;20044;-79
2022/11/10 02:12:35;;;;;;;8.35;2.42;;;10.20;99.90;;;-144.05;74.68;125687.94;5035917;28;20064;-79
2022/11/10 02:15:16;;;;;;;7.55;2.35;;;10.20;99.90;;;-144.05;74.05;125687.94;5034297;28;20083;-78
2022/11/10 02:17:44;;;;;;;17.25;2.42;;;10.10;99.90;;;-144.05;74.61;125687.94;5050993;28;20029;-78
2022/11/10 02:20:18;;;;;;;12.73;2.45;;;10.10;99.90;;;-144.05;74.73;125687.94;5035287;28;20485;-77
2022/11/10 02:22:44;;;;;;;11.40;1.92;;;10.10;99.90;;;-144.05;74.62;125687.94;5035468;28;20034;-77
2022/11/10 02:25:19;;;;;;;13.07;2.85;;;10.20;99.90;;;-144.05;74.84;125687.94;5035770;28;20238;-77
2022/11/10 02:27:45;;;;;;;12.93;2.75;;;10.20;99.90;;;-144.05;74.81;125687.94;5034325;28;20056;-79
2022/11/10 02:30:12;;;;;;;13.75;2.97;;;10.10;99.90;;;-144.05;75.25;125687.94;5034691;28;20030;-78
2022/11/10 02:32:38;;;;;;;9.35;2.22;;;10.10;99.90;;;-144.05;75.08;125687.94;5034544;28;20048;-77
2022/11/10 02:35:05;;;;;;;11.85;2.33;;;10.10;99.90;;;-144.05;74.58;125687.94;5035583;28;20026;-78
2022/11/10 02:37:31;;;;;;;19.42;3.10;;;10.10;99.90;;;-144.05;74.50;125687.94;5036273;28;20030;-78
2022/11/10 02:39:57;;;;;;;11.25;2.53;;;10.20;99.90;;;-144.05;74.62;125687.94;5051233;28;20101;-78
2022/11/10 02:42:23;;;;;;;12.25;3.15;;;10.10;99.90;;;-144.05;75.29;125687.94;5035194;28;20033;-77
2022/11/10 02:44:49;;;;;;;14.68;3.20;;;10.20;99.90;;;-144.05;74.84;125687.94;5042500;28;20048;-80
2022/11/10 02:47:15;;;;;;;12.45;2.33;;;10.20;99.90;;;-144.05;74.36;125687.94;5035380;28;20022;-78
2022/11/10 02:49:41;;;;;;;11.20;2.33;;;10.20;99.90;;;-144.05;74.03;125687.94;5036097;28;20113;-78
2022/11/10 02:52:07;;;;;;;18.60;3.05;;;10.10;99.90;;;-144.05;75.14;125687.94;5035942;28;20510;-77
2022/11/10 02:54:32;;;;;;;14.10;2.55;;;10.10;99.90;;;-144.05;74.88;125687.94;5035833;28;20030;-78
2022/11/10 02:57:01;;;;;;;11.65;2.38;;;10.10;99.90;;;-144.05;75.10;125687.94;5052240;28;20033;-76
2022/11/10 02:59:27;;;;;;;11.85;2.67;;;10.10;99.90;;;-144.05;74.75;125687.94;5038895;28;20126;-79
2022/11/10 03:01:53;;;;;;;13.93;2.42;;;10.10;99.90;;;-144.05;74.86;125687.94;5040257;28;20025;-79
2022/11/10 03:04:19;;;;;;;9.45;2.47;;;10.10;99.90;;;-144.05;74.92;125687.94;5038905;28;20038;-78
2022/11/10 03:06:45;;;;;;;8.35;2.38;;;10.20;99.90;;;-144.05;74.69;125687.94;5035829;28;20440;-77
2022/11/10 03:09:11;;;;;;;9.68;1.90;;;10.20;99.90;;;-144.05;74.90;125687.94;5034879;28;20033;-78
2022/11/10 03:11:36;;;;;;;14.80;2.40;;;10.20;99.90;;;-144.05;75.06;125687.94;5054189;28;20037;-77
2022/11/10 03:14:02;;;;;;;11.43;2.42;;;10.20;99.90;;;-144.05;74.88;125687.94;5039654;28;20121;-78
2022/11/10 03:16:29;;;;;;;12.32;2.10;;;10.20;99.90;;;-144.05;74.49;125687.94;5038971;28;20033;-78
2022/11/10 03:18:55;;;;;;;16.27;3.20;;;10.20;99.90;;;-144.05;74.47;125687.94;5039050;28;20060;-76
2022/11/10 03:21:21;;;;;;;11.60;2.33;;;10.20;99.90;;;-144.05;74.73;125687.94;5038916;28;20112;-79
2022/11/10 03:23:47;;;;;;;9.02;2.35;;;10.20;99.90;;;-144.05;74.06;125687.94;5039240;28;20034;-78
2022/11/10 03:26:13;;;;;;;11.30;2.53;;;10.10;99.90;;;-144.05;74.90;125687.94;5038731;28;20029;-78
2022/11/10 03:28:39;;;;;;;15.73;2.60;;;10.10;99.90;;;-144.05;75.24;125687.94;5055707;28;20036;-77
2022/11/10 03:31:05;;;;;;;13.50;2.55;;;10.10;99.90;;;-144.05;75.03;125687.94;5039486;28;20452;-77
2022/11/10 03:33:30;;;;;;;10.32;2.20;;;10.20;99.90;;;-144.05;74.72;125687.94;5039618;28;20038;-78
2022/11/10 03:35:56;;;;;;;12.52;2.85;;;10.10;99.90;;;-144.05;74.75;125687.94;5039238;28;20155;-78
2022/11/10 03:38:22;;;;;;;14.43;2.20;;;10.10;99.90;;;-144.05;75.40;125687.94;5039028;28;20029;-77
2022/11/10 03:40:50;;;;;;;19.88;2.70;;;10.10;99.90;;;-144.05;74.96;125687.94;5040174;28;20119;-78
2022/11/10 03:43:16;;;;;;;13.15;2.20;;;10.10;99.90;;;-144.05;75.05;125687.94;5041989;23;20056;-78
2022/11/10 03:45:44;;;;;;;13.85;2.58;;;10.10;99.90;;;-144.05;74.73;125687.94;5018461;28;20034;-78
2022/11/10 03:48:10;;;;;;;13.18;3.33;;;10.10;99.90;;;-144.05;74.64;125687.94;5018326;28;20109;-76
2022/11/10 03:50:36;;;;;;;12.52;3.20;;;10.10;99.90;;;-144.05;74.86;125687.94;5018045;28;20107;-77
2022/11/10 03:53:02;;;;;;;16.25;2.92;;;10.20;99.90;;;-144.05;75.10;125687.94;5018048;28;20113;-76
2022/11/10 03:55:28;;;;;;;17.58;2.95;;;10.20;99.90;;;-144.05;75.10;125687.94;5017740;28;20053;-76
2022/11/10 03:57:53;;;;;;;13.70;3.45;;;10.20;99.90;;;-144.05;75.08;125687.94;5017347;28;20057;-79
2022/11/10 04:00:20;;;;;;;16.00;3.22;;;10.20;99.90;;;-144.05;75.08;125687.94;5017401;28;20029;-79
2022/11/10 04:02:46;;;;;;;11.13;2.85;;;10.10;99.90;;;-144.05;75.61;125687.94;5015949;28;20080;-78
2022/11/10 04:10:44;;;;;;;14.65;2.53;;;10.20;99.90;;;-144.05;74.96;125687.94;5019168;28;20505;-79
2022/11/10 04:15:56;;;;;;;14.10;2.85;;;10.20;99.90;;;-144.05;74.79;125687.94;5015701;28;20091;-78
2022/11/10 04:18:24;;;;;;;17.02;2.78;;;10.20;99.90;;;-144.05;75.04;125687.94;5014145;28;20038;-79
2022/11/10 04:20:58;;;;;;;14.85;2.42;;;10.10;99.90;;;-144.05;75.44;125687.94;5013347;28;20079;-77
2022/11/10 04:23:34;;;;;;;14.65;3.55;;;10.20;99.90;;;-144.05;75.53;125687.94;5015678;28;20022;-78
2022/11/10 04:26:27;;;;;;;14.23;2.90;;;10.20;99.90;;;-144.05;75.17;125687.94;4998106;28;20030;-79
2022/11/10 04:29:00;;;;;;;18.33;2.80;;;10.20;99.90;;;-144.05;75.23;125687.94;5016838;28;20026;-77
2022/11/10 04:31:31;;;;;;;15.15;3.65;;;10.10;99.90;;;-144.05;75.74;125687.94;5016864;28;20040;-79
2022/11/10 04:33:58;;;;;;;13.25;2.63;;;10.00;99.90;;;-144.05;75.82;125687.94;4999066;28;20033;-79
2022/11/10 04:36:29;;;;;;;11.77;2.40;;;10.00;99.90;;;-144.05;75.30;125687.94;5015938;28;20511;-79
2022/11/10 04:38:55;;;;;;;12.85;2.80;;;10.00;99.90;;;-144.05;75.72;125687.94;5017153;28;20034;-78
2022/11/10 04:41:23;;;;;;;11.30;3.30;;;10.00;99.90;;;-144.05;75.38;125687.94;5017162;28;20041;-79
2022/11/10 04:43:50;;;;;;;13.18;2.40;;;10.00;99.90;;;-144.05;75.43;125687.94;5016639;28;20049;-79
2022/11/10 04:46:35;;;;;;;15.82;3.13;;;9.90;99.90;;;-144.05;75.32;125687.94;5015928;28;20045;-79
2022/11/10 04:49:04;;;;;;;13.10;2.67;;;10.00;99.90;;;-144.05;75.87;125687.94;5017030;28;20371;-78
2022/11/10 04:51:37;;;;;;;18.33;3.60;;;9.90;99.90;;;-144.05;76.10;125687.94;4999668;28;20030;-78
2022/11/10 04:54:06;;;;;;;12.13;2.80;;;9.90;99.90;;;-144.05;75.51;125687.94;4998975;28;20048;-79
2022/11/10 04:56:33;;;;;;;17.02;2.63;;;9.90;99.90;;;-144.05;76.26;125687.94;5017530;28;20034;-79
2022/11/10 04:58:59;;;;;;;16.38;2.72;;;9.90;99.90;;;-144.05;76.21;125687.94;5017155;28;20128;-80
2022/11/10 05:01:26;;;;;;;13.30;3.13;;;9.80;99.90;;;-144.05;76.06;125687.94;5017307;28;20034;-77
2022/11/10 05:03:53;;;;;;;12.95;2.67;;;9.80;99.90;;;-144.05;76.37;125687.94;5017367;28;20445;-79
2022/11/10 05:06:20;;;;;;;15.88;2.88;;;9.80;99.90;;;-144.05;76.44;125687.94;5017179;28;20030;-78
2022/11/10 05:08:46;;;;;;;10.80;2.75;;;9.80;99.90;;;-144.05;76.79;125687.94;5014838;28;20025;-76
2022/11/10 05:11:13;;;;;;;15.57;2.92;;;9.80;99.90;;;-144.05;76.49;125687.94;5016610;28;20113;-79
2022/11/10 05:13:40;;;;;;;18.63;2.78;;;9.80;99.90;;;-144.05;76.02;125687.94;5016452;28;20033;-77
2022/11/10 05:16:07;;;;;;;16.85;2.83;;;9.90;99.90;;;-144.05;76.36;125687.94;5014849;28;20539;-79
2022/11/10 05:18:34;;;;;;;12.45;3.22;;;9.80;99.90;;;-144.05;76.42;125687.94;5016317;28;20085;-79
2022/11/10 05:21:00;;;;;;;9.00;2.35;;;9.80;99.90;;;-144.05;76.92;125687.94;5015700;28;20030;-79
2022/11/10 05:23:37;;;;;;;14.88;3.25;;;9.80;99.90;;;-144.05;76.34;125687.94;5015948;28;20050;-79
2022/11/10 05:26:13;;;;;;;13.02;2.67;;;9.80;99.90;;;-144.05;76.00;125687.94;5015602;28;20140;-76
2022/11/10 05:28:43;;;;;;;17.88;3.35;;;9.90;99.90;;;-144.05;76.16;125687.94;5015804;28;20389;-78
2022/11/10 05:31:11;;;;;;;14.50;2.75;;;9.80;99.90;;;-144.05;76.54;125687.94;5015321;28;20068;-79
2022/11/10 05:33:38;;;;;;;13.75;3.20;;;9.80;99.90;;;-144.05;76.74;125687.94;5014895;28;20051;-78
2022/11/10 05:36:06;;;;;;;23.75;3.08;;;9.80;99.90;;;-144.05;76.28;125687.94;5013531;28;20034;-77
2022/11/10 05:38:32;;;;;;;14.60;3.25;;;9.80;99.90;;;-144.05;76.87;125687.94;5014241;28;20036;-78
2022/11/10 05:40:58;;;;;;;14.85;3.30;;;9.80;99.90;;;-144.05;76.91;125687.94;5014855;28;20030;-78
2022/11/10 05:43:24;;;;;;;12.65;2.90;;;9.70;99.90;;;-144.05;76.59;125687.94;5013416;28;20053;-76
2022/11/10 05:45:51;;;;;;;19.60;3.90;;;9.70;99.90;;;-144.05;77.14;125687.94;4997769;28;20030;-79
2022/11/10 05:48:16;;;;;;;12.73;3.53;;;9.70;99.90;;;-144.05;76.93;125687.94;5016017;28;20030;-79
2022/11/10 05:50:44;;;;;;;19.40;3.05;;;9.70;99.90;;;-144.05;76.48;125687.94;5014814;28;20516;-78
2022/11/10 05:53:10;;;;;;;12.10;3.58;;;9.60;99.90;;;-144.05;76.83;125687.94;5014102;28;20029;-75
2022/11/10 05:55:36;;;;;;;11.65;3.15;;;9.60;99.90;;;-144.05;76.77;125687.94;5016878;28;20060;-78
2022/11/10 05:58:03;;;;;;;18.58;3.50;;;9.60;99.90;;;-144.05;77.03;125687.94;5015774;28;20052;-76
2022/11/10 06:00:31;;;;;;;28.00;3.92;;;9.50;99.90;;;-144.05;77.96;125687.94;5013794;28;20057;-79
2022/11/10 06:03:06;;;;;;;12.82;3.22;;;9.60;99.90;;;-144.05;77.69;125687.94;5014476;28;20040;-77
2022/11/10 06:05:35;;;;;;;15.43;3.67;;;9.60;99.90;;;-144.05;77.41;125687.94;5015526;28;20053;-79
2022/11/10 06:08:04;;;;;;;15.00;3.45;;;9.60;99.90;;;-144.05;77.48;125687.94;5015096;28;20061;-79
2022/11/10 06:10:31;;;;;;;18.05;4.43;;;9.60;99.90;;;-144.05;77.75;125687.94;5016513;28;20125;-78
2022/11/10 06:12:57;;;;;;;21.65;3.75;;;9.60;99.90;;;-144.05;77.50;125687.94;5016141;28;20026;-78
2022/11/10 06:15:25;;;;;;;16.67;3.05;;;9.70;99.90;;;-144.05;77.54;125687.94;5016348;28;20113;-79
2022/11/10 06:17:51;;;;;;;17.95;3.10;;;9.70;99.90;;;-144.05;77.59;125687.94;5015080;28;20079;-78
2022/11/10 06:20:19;;;;;;;15.05;3.17;;;9.70;99.90;;;-144.05;77.75;125687.94;5016075;28;20041;-79
2022/11/10 06:23:10;;;;;;;19.20;4.30;;;9.80;99.90;;;-144.05;77.26;125687.94;5016438;28;20053;-79
2022/11/10 06:25:39;;;;;;;15.40;3.08;;;9.70;99.90;;;-144.05;77.51;125687.94;5015956;28;20034;-78
2022/11/10 06:28:08;;;;;;;16.10;3.40;;;9.70;99.90;;;-144.05;77.07;125687.94;5015209;28;20371;-80
2022/11/10 06:30:36;;;;;;;21.27;3.55;;;9.70;99.90;;;-144.05;77.26;125687.94;5016351;28;20034;-77
2022/11/10 06:33:02;;;;;;;17.20;3.50;;;9.70;99.90;;;-144.05;77.46;125687.94;5015828;28;20038;-78
2022/11/10 06:35:29;;;;;;;12.40;2.95;;;9.70;99.90;;;-144.05;77.09;125687.94;5013710;28;20052;-79
2022/11/10 06:38:11;;;;;;;15.50;3.28;;;9.70;99.90;;;-144.05;77.28;125687.94;5014577;28;20034;-78
2022/11/10 06:40:37;;;;;;;19.67;3.25;;;9.70;99.90;;;-144.05;77.66;125687.94;5015075;28;20382;-79
2022/11/10 06:43:03;;;;;;;13.63;3.05;;;9.70;99.90;;;-144.05;77.22;125687.94;5014158;28;20026;-77
2022/11/10 06:45:29;;;;;;;16.38;3.35;;;9.80;99.90;;;-144.05;76.91;125687.94;5014648;28;20397;-77
2022/11/10 06:48:08;;;;;;;18.63;3.53;;;9.80;99.90;;;-144.05;77.19;125687.94;5017220;28;20040;-77
2022/11/10 06:50:34;;;;;;;19.08;4.05;;;9.70;99.90;;;-144.05;77.29;125687.94;5017002;28;20037;-77
2022/11/10 06:53:00;;;;;;;17.20;3.38;;;9.70;99.90;;;-144.05;77.39;125687.94;5015760;28;20559;-77
2022/11/10 06:55:27;;;;;;;14.98;3.55;;;9.80;99.90;;;-144.05;77.06;125687.94;5016668;28;20065;-77
2022/11/10 06:57:53;;;;;;;14.48;2.97;;;9.80;99.90;;;-144.05;77.16;125687.94;5015698;28;20040;-76
2022/11/10 07:00:20;;;;;;;13.38;2.67;;;9.70;99.90;;;-144.05;77.95;125687.94;5015817;28;20034;-77
2022/11/10 07:02:46;;;;;;;16.60;3.08;;;9.80;99.90;;;-144.05;77.58;125687.94;5015121;28;20061;-78
2022/11/10 07:05:14;;;;;;;15.15;3.70;;;9.80;99.90;;;-144.05;77.75;125687.94;5016802;28;20030;-77
2022/11/10 07:07:40;;;;;;;17.45;3.53;;;9.80;99.90;;;-144.05;77.61;125687.94;5016238;28;20053;-78
2022/11/10 07:10:06;;;;;;;17.90;3.10;;;9.90;99.90;;;-144.05;77.09;125687.94;5016437;28;20527;-78
2022/11/10 07:12:32;;;;;;;17.77;3.72;;;10.00;99.90;;;-144.05;76.83;125687.94;5015293;28;20133;-78
2022/11/10 07:14:58;;;;;;;15.38;2.70;;;10.00;99.90;;;-144.05;76.86;125687.94;5017042;28;20512;-77
2022/11/10 07:17:24;;;;;;;16.20;3.05;;;10.00;99.90;;;-144.05;76.58;125687.94;5015956;28;20030;-77
2022/11/10 07:19:50;;;;;;;12.77;3.28;;;10.10;99.90;;;-144.05;76.06;125687.94;5015975;28;20049;-77
2022/11/10 07:22:17;;;;;;;18.52;3.03;;;10.10;99.90;;;-144.05;75.39;125687.94;5016427;28;20167;-77
2022/11/10 07:24:42;;;;;;;14.40;2.90;;;10.20;99.90;;;-144.05;75.51;125687.94;5016622;28;20052;-78
2022/11/10 07:27:08;;;;;;;16.55;3.88;;;10.20;99.90;;;-144.05;75.19;125687.94;5016409;28;20058;-78
2022/11/10 07:29:34;;;;;;;21.45;4.53;;;10.30;99.90;;;-144.05;74.83;125687.94;5016611;28;20033;-77
2022/11/10 07:32:00;;;;;;;15.10;3.15;;;10.30;99.90;;;-144.05;74.91;125687.94;5015968;28;20045;-76
2022/11/10 07:34:25;;;;;;;20.17;3.45;;;10.40;99.90;;;-144.05;74.34;125687.94;5015791;28;20092;-78
2022/11/10 07:36:51;;;;;;;17.17;3.47;;;10.50;99.90;;;-144.05;74.31;125687.94;5015423;28;20037;-78
2022/11/10 07:39:17;;;;;;;17.33;3.33;;;10.40;99.90;;;-144.05;75.17;125687.94;4999314;28;20036;-77
2022/11/10 07:41:43;;;;;;;11.98;4.00;;;10.30;99.90;;;-144.05;75.48;125687.94;5016618;28;20077;-78
2022/11/10 07:44:09;;;;;;;20.73;3.95;;;10.30;99.90;;;-144.05;75.30;125687.94;5016888;28;20085;-78
2022/11/10 07:46:35;;;;;;;16.80;3.42;;;10.50;99.90;;;-144.05;74.29;125687.94;5016761;28;20112;-78
2022/11/10 07:49:00;;;;;;;17.90;3.00;;;10.60;99.90;;;-144.05;74.02;125687.94;5016728;28;20057;-78
2022/11/10 07:51:26;;;;;;;17.48;3.47;;;10.60;99.90;;;-144.05;74.13;125687.94;4998840;28;20091;-77
2022/11/10 07:53:52;;;;;;;18.98;2.50;;;10.50;99.90;;;-144.05;74.44;125687.94;4998580;28;20026;-77
2022/11/10 07:56:18;;;;;;;12.27;3.33;;;10.50;99.90;;;-144.05;74.19;125687.94;5015892;28;20084;-77
2022/11/10 07:58:46;;;;;;;18.45;3.38;;;10.50;99.90;;;-144.05;73.54;125687.94;5016513;28;20481;-76
2022/11/10 08:01:12;;;;;;;15.27;4.97;;;10.60;99.90;;;-144.05;73.48;125687.94;4998177;28;20037;-79
2022/11/10 08:03:37;;;;;;;13.68;2.83;;;10.60;99.90;;;-144.05;74.53;125687.94;5015020;28;20034;-77
2022/11/10 08:06:03;;;;;;;14.75;3.35;;;10.50;99.90;;;-144.05;74.43;125687.94;5016580;28;20033;-76
2022/11/10 08:08:29;;;;;;;15.02;3.63;;;10.50;99.90;;;-144.05;74.09;125687.94;5015252;28;20029;-78
2022/11/10 08:10:57;;;;;;;15.32;2.97;;;10.60;99.90;;;-144.05;74.16;125687.94;4998593;28;20036;-74
2022/11/10 08:13:23;;;;;;;12.85;2.95;;;10.70;99.90;;;-144.05;72.99;125687.94;5018021;28;20037;-76
2022/11/10 08:15:49;;;;;;;13.95;3.25;;;10.90;99.90;;;-144.05;72.22;125687.94;5014684;28;20034;-75
2022/11/10 08:18:22;;;;;;;18.80;3.45;;;11.20;99.90;;;-144.05;71.57;125687.94;5015089;28;20542;-77
2022/11/10 08:20:49;;;;;;;14.82;2.60;;;11.40;99.90;;;-144.05;70.24;125687.94;5014514;28;20061;-77
2022/11/10 08:23:16;;;;;;;14.70;2.80;;;11.60;99.90;;;-144.05;69.37;125687.94;4997331;28;20030;-76
2022/11/10 08:25:43;;;;;;;13.05;2.42;;;11.70;99.90;;;-144.05;68.65;125687.94;5014631;28;20026;-77
2022/11/10 08:28:12;;;;;;;19.80;3.55;;;11.90;99.90;;;-144.05;68.46;125687.94;5015180;28;20022;-79
2022/11/10 08:30:42;;;;;;;15.68;2.45;;;12.00;99.90;;;-144.05;67.48;125687.94;5016267;28;20100;-78
2022/11/10 08:33:13;;;;;;;18.83;3.88;;;12.20;99.90;;;-144.05;67.47;125687.94;5016285;28;20041;-77
2022/11/10 08:35:45;;;;;;;13.32;2.90;;;12.20;99.90;;;-144.05;67.27;125687.94;5016024;28;20040;-79
2022/11/10 08:38:23;;;;;;;12.65;2.88;;;12.40;99.90;;;-144.05;66.22;125687.94;4997850;28;20037;-78
2022/11/10 08:40:49;;;;;;;11.40;3.00;;;12.50;99.90;;;-144.05;66.40;125687.94;5015144;28;20034;-78
2022/11/10 08:43:17;;;;;;;16.98;3.40;;;12.60;99.90;;;-144.05;65.23;125687.94;4997917;28;20120;-78
2022/11/10 08:45:45;;;;;;;15.70;2.88;;;12.70;99.90;;;-144.05;65.36;125687.94;4998564;28;20026;-78
2022/11/10 08:48:18;;;;;;;13.48;3.35;;;12.70;99.90;;;-144.05;64.73;125687.94;5015772;28;20026;-77
2022/11/10 08:50:46;;;;;;;16.33;3.22;;;12.80;99.90;;;-144.05;64.45;125687.94;5014552;28;20057;-76
2022/11/10 08:53:20;;;;;;;11.43;2.38;;;12.90;99.90;;;-144.05;63.78;125687.94;5014782;28;20030;-77
2022/11/10 08:55:48;;;;;;;16.27;2.55;;;13.00;99.90;;;-144.05;63.72;125687.94;5014674;28;20113;-77
2022/11/10 08:58:19;;;;;;;16.08;2.67;;;13.10;99.90;;;-144.05;63.34;125687.94;5013693;28;20084;-77
2022/11/10 09:00:45;;;;;;;16.70;2.97;;;13.20;99.90;;;-144.05;62.78;125687.94;5014363;28;20084;-76
2022/11/10 09:03:23;;;;;;;8.30;2.45;;;13.30;99.90;;;-144.05;62.64;125687.94;5014710;28;20563;-78
2022/11/10 09:05:51;;;;;;;17.25;3.25;;;13.40;99.90;;;-144.05;62.65;125687.94;5014710;28;20088;-78
2022/11/10 09:08:18;;;;;;;18.00;2.85;;;13.40;99.90;;;-144.05;61.19;125687.94;5013190;28;20030;-79
2022/11/10 09:10:49;;;;;;;17.08;3.53;;;13.50;99.90;;;-144.05;62.08;125687.94;4997106;28;20022;-78
2022/11/10 09:13:17;;;;;;;11.90;3.05;;;13.40;99.90;;;-144.05;61.42;125687.94;5015252;28;20084;-78
2022/11/10 09:15:44;;;;;;;16.67;2.90;;;13.60;99.90;;;-144.05;60.80;125687.94;5014791;28;20041;-77
2022/11/10 09:18:13;;;;;;;12.63;2.85;;;13.70;99.90;;;-144.05;61.07;125687.94;5014155;28;20061;-77
2022/11/10 09:20:40;;;;;;;12.32;3.17;;;13.70;99.90;;;-144.05;61.38;125687.94;5012762;28;20370;-77
2022/11/10 09:23:16;;;;;;;11.50;2.72;;;13.70;99.90;;;-144.05;60.63;125687.94;5013684;28;20034;-76
2022/11/10 09:25:49;;;;;;;12.48;2.97;;;13.70;99.90;;;-144.05;60.74;125687.94;5013786;28;20115;-78
2022/11/10 09:28:17;;;;;;;16.92;2.92;;;13.90;99.90;;;-144.05;60.52;125687.94;5020735;28;20045;-77
2022/11/10 09:30:48;;;;;;;18.15;3.15;;;13.90;99.90;;;-144.05;59.65;125687.94;5027847;28;20065;-77
2022/11/10 09:33:15;;;;;;;12.68;2.85;;;14.10;99.90;;;-144.05;60.60;125687.94;5031404;28;20018;-73
2022/11/10 09:35:42;;;;;;;15.38;3.25;;;14.10;99.90;;;-144.05;59.89;125687.94;5030381;28;20220;-76
2022/11/10 09:38:08;;;;;;;14.70;3.13;;;14.20;99.90;;;-144.05;59.46;125687.94;5025083;28;20026;-76
2022/11/10 09:41:01;;;;;;;11.45;2.53;;;14.30;99.90;;;-144.05;58.58;125687.94;5027781;28;20114;-77
2022/11/10 09:44:10;;;;;;;11.98;2.70;;;14.40;99.90;;;-144.05;58.42;125687.94;5015314;28;20465;-77
2022/11/10 09:46:45;;;;;;;14.27;2.88;;;14.40;99.90;;;-144.05;60.14;125687.94;5014314;28;20037;-77
2022/11/10 09:49:48;;;;;;;13.95;3.03;;;14.30;99.90;;;-144.05;59.16;125687.94;5016012;28;20105;-79
2022/11/10 09:52:17;;;;;;;15.30;2.58;;;14.40;99.90;;;-144.05;59.91;125687.94;5015060;28;20033;-78
2022/11/10 09:55:28;;;;;;;15.05;2.53;;;14.30;99.90;;;-144.05;59.41;125687.94;5014247;28;20049;-78
2022/11/10 09:57:58;;;;;;;17.40;3.22;;;14.40;99.90;;;-144.05;58.91;125687.94;5014073;28;20045;-78
2022/11/10 10:00:24;;;;;;;16.30;2.88;;;14.40;99.90;;;-144.05;58.96;125687.94;5014329;28;20026;-77
2022/11/10 10:03:04;;;;;;;15.27;2.97;;;14.50;99.90;;;-144.05;58.29;125687.94;5012779;28;20080;-77
2022/11/10 10:06:05;;;;;;;13.38;2.72;;;14.50;99.90;;;-144.05;58.60;125687.94;5013894;28;20069;-79
2022/11/10 10:08:59;;;;;;;19.20;3.20;;;14.50;99.90;;;-144.05;58.33;125687.94;5013202;28;20022;-76
2022/11/10 10:12:02;;;;;;;15.15;3.03;;;14.60;99.90;;;-144.05;58.90;125687.94;5012552;28;20056;-77
2022/11/10 10:15:07;;;;;;;9.52;2.83;;;14.70;99.90;;;-144.05;57.76;125687.94;5014470;28;20041;-78
2022/11/10 10:17:56;;;;;;;15.98;3.28;;;14.90;99.90;;;-144.05;57.09;125687.94;5014388;28;20029;-75